createdAt,value
2019-03-29T00:00:34.183Z,75068.09
2019-03-29T00:03:15.159Z,75065.11
2019-03-29T00:05:55.501Z,75064.11
2019-03-29T00:08:36.349Z,75062.13
2019-03-29T00:11:17.015Z,75076.03
2019-03-29T00:13:58.023Z,75086.96
2019-03-29T00:16:39.003Z,75091.92
2019-03-29T00:19:19.579Z,75098.88
2019-03-29T00:22:00.264Z,75103.84
2019-03-29T00:24:41.359Z,75107.82
2019-03-29T00:27:22.028Z,75109.81
2019-03-29T00:30:02.183Z,75104.84
2019-03-29T00:32:42.767Z,75094.91
2019-03-29T00:35:23.752Z,75091.92
2019-03-29T00:38:04.106Z,75089.94
2019-03-29T00:40:45.324Z,75087.95
2019-03-29T00:43:26.162Z,75078.02
2019-03-29T00:46:06.863Z,75070.08
2019-03-29T00:48:48.022Z,75058.16
2019-03-29T00:51:28.306Z,75052.19
2019-03-29T00:54:09.811Z,75040.27
2019-03-29T00:56:50.775Z,75038.28
2019-03-29T00:59:32.263Z,75032.33
2019-03-29T01:02:13.103Z,75029.34
2019-03-29T01:04:54.859Z,75016.43
2019-03-29T01:07:35.805Z,75004.51
2019-03-29T01:10:17.364Z,74993.58
2019-03-29T01:12:58.314Z,74992.59
2019-03-29T01:15:39.161Z,74995.56
2019-03-29T01:18:19.492Z,74978.68
2019-03-29T01:21:00.046Z,74986.63
2019-03-29T01:23:40.765Z,74978.68
2019-03-29T01:26:21.654Z,74967.75
2019-03-29T01:29:02.692Z,74956.83
2019-03-29T01:31:43.563Z,74952.85
2019-03-29T01:34:24.541Z,74975.70
2019-03-29T01:37:05.113Z,74960.80
2019-03-29T01:39:46.145Z,74944.91
2019-03-29T01:42:26.776Z,74909.14
2019-03-29T01:45:07.414Z,74883.32
2019-03-29T01:47:48.134Z,74871.40
2019-03-29T01:50:29.018Z,74855.50
2019-03-29T01:53:10.078Z,74867.42
2019-03-29T01:55:51.575Z,74847.55
2019-03-29T01:58:32.518Z,74868.42
2019-03-29T02:01:13.479Z,74844.58
2019-03-29T02:03:54.122Z,74815.77
2019-03-29T02:06:35.084Z,74809.81
2019-03-29T02:09:16.378Z,74809.81
2019-03-29T02:11:57.659Z,74817.76
2019-03-29T02:14:38.924Z,74789.95
2019-03-29T02:17:20.212Z,74786.97
2019-03-29T02:20:00.940Z,74796.90
2019-03-29T02:22:42.203Z,74775.05
2019-03-29T02:25:23.094Z,74796.90
2019-03-29T02:28:04.380Z,74770.08
2019-03-29T02:30:45.647Z,74743.26
2019-03-29T02:33:26.969Z,74795.91
2019-03-29T02:36:08.205Z,74781.00
2019-03-29T02:38:55.810Z,74783.98
2019-03-29T02:41:30.762Z,74769.08
2019-03-29T02:44:11.727Z,74769.08
2019-03-29T02:46:53.786Z,74767.09
2019-03-29T02:49:34.601Z,74768.09
2019-03-29T02:52:15.952Z,74777.03
2019-03-29T02:54:56.824Z,74774.05
2019-03-29T02:57:37.532Z,74782.98
2019-03-29T03:00:18.444Z,74753.19
2019-03-29T03:02:59.413Z,74767.09
2019-03-29T03:05:40.366Z,74790.94
2019-03-29T03:08:21.150Z,74781.00
2019-03-29T03:11:02.285Z,74778.02
2019-03-29T03:13:43.584Z,74762.13
2019-03-29T03:16:24.207Z,74759.15
2019-03-29T03:19:04.847Z,74744.25
2019-03-29T03:21:45.904Z,74722.40
2019-03-29T03:24:26.764Z,74684.66
2019-03-29T03:27:07.436Z,74684.66
2019-03-29T03:29:48.533Z,74714.45
2019-03-29T03:32:29.059Z,74712.47
2019-03-29T03:35:09.459Z,74726.38
2019-03-29T03:37:49.832Z,74742.27
2019-03-29T03:40:31.252Z,74722.40
2019-03-29T03:43:12.847Z,74718.42
2019-03-29T03:45:53.522Z,74695.58
2019-03-29T03:48:34.214Z,74674.72
2019-03-29T03:51:15.303Z,74651.88
2019-03-29T03:53:56.684Z,74663.80
2019-03-29T03:56:37.977Z,74663.80
2019-03-29T03:59:18.674Z,74660.81
2019-03-29T04:01:59.537Z,74667.77
2019-03-29T04:04:40.872Z,74673.73
2019-03-29T04:07:21.500Z,74690.61
2019-03-29T04:10:02.165Z,74654.85
2019-03-29T04:12:43.414Z,74663.80
2019-03-29T04:15:23.925Z,74652.87
2019-03-29T04:18:05.331Z,74633.99
2019-03-29T04:20:46.312Z,74633.00
2019-03-29T04:23:27.721Z,74628.03
2019-03-29T04:26:08.696Z,74604.20
2019-03-29T04:29:03.396Z,74600.22
2019-03-29T04:31:31.383Z,74589.30
2019-03-29T04:34:12.697Z,74564.47
2019-03-29T04:36:53.643Z,74558.50
2019-03-29T04:39:34.937Z,74554.53
2019-03-29T04:42:16.213Z,74584.33
2019-03-29T04:44:59.900Z,74610.16
2019-03-29T04:47:39.572Z,74590.29
2019-03-29T04:50:20.682Z,74549.56
2019-03-29T04:59:02.288Z,74455.20
2019-03-29T05:01:43.252Z,74455.20
2019-03-29T05:04:23.952Z,74473.09
2019-03-29T05:07:04.282Z,74444.28
2019-03-29T05:09:45.502Z,74421.44
2019-03-29T05:12:26.453Z,74445.27
2019-03-29T05:15:07.402Z,74406.53
2019-03-29T05:17:48.142Z,74405.55
2019-03-29T05:20:29.639Z,74407.53
2019-03-29T05:23:10.884Z,74390.64
2019-03-29T05:25:52.203Z,74339.00
2019-03-29T05:28:33.804Z,74365.81
2019-03-29T05:31:15.333Z,74394.62
2019-03-29T05:33:57.007Z,74405.55
2019-03-29T05:36:37.993Z,74393.63
2019-03-29T05:39:18.937Z,74355.88
2019-03-29T05:42:00.543Z,74362.84
2019-03-29T05:44:41.813Z,74367.80
2019-03-29T05:47:23.083Z,74360.84
2019-03-29T05:50:04.130Z,74316.16
2019-03-29T05:52:45.654Z,74301.25
2019-03-29T05:55:32.633Z,74300.27
2019-03-29T05:58:07.888Z,74317.14
2019-03-29T06:00:49.177Z,74290.33
2019-03-29T06:03:30.446Z,74311.19
2019-03-29T06:06:11.409Z,74303.24
2019-03-29T06:08:52.043Z,74298.28
2019-03-29T06:11:33.023Z,74296.29
2019-03-29T06:14:13.964Z,74277.42
2019-03-29T06:16:55.576Z,74285.36
2019-03-29T06:19:36.849Z,74257.55
2019-03-29T06:22:17.803Z,74267.48
2019-03-29T06:24:58.775Z,74264.51
2019-03-29T06:27:40.055Z,74256.56
2019-03-29T06:30:21.008Z,74240.67
2019-03-29T06:33:01.714Z,74258.55
2019-03-29T06:35:42.612Z,74299.27
2019-03-29T06:38:23.883Z,74307.22
2019-03-29T06:41:05.190Z,74300.27
2019-03-29T06:43:45.805Z,74234.71
2019-03-29T06:46:26.293Z,74197.97
2019-03-29T06:49:07.418Z,74150.29
2019-03-29T06:51:48.366Z,74164.20
2019-03-29T06:54:29.800Z,74166.18
2019-03-29T06:57:10.846Z,74184.06
2019-03-29T06:59:52.220Z,74185.05
2019-03-29T07:02:33.480Z,74194.98
2019-03-29T07:05:14.441Z,74209.88
2019-03-29T07:07:55.142Z,74204.92
2019-03-29T07:10:36.645Z,74183.06
2019-03-29T07:13:17.989Z,74183.06
2019-03-29T07:15:59.562Z,74177.11
2019-03-29T07:18:40.844Z,74167.17
2019-03-29T07:21:22.252Z,74160.22
2019-03-29T07:24:03.503Z,74201.94
2019-03-29T07:26:45.015Z,74191.02
2019-03-29T07:29:26.325Z,74155.26
2019-03-29T07:32:07.564Z,74132.41
2019-03-29T07:34:49.250Z,74096.66
2019-03-29T07:37:30.129Z,74082.75
2019-03-29T07:40:11.085Z,74110.56
2019-03-29T07:42:52.377Z,74107.59
2019-03-29T07:45:33.113Z,74121.48
2019-03-29T07:48:14.370Z,74114.53
2019-03-29T07:50:55.886Z,74103.61
2019-03-29T07:53:37.184Z,74123.47
2019-03-29T07:56:18.134Z,74100.63
2019-03-29T07:58:59.080Z,74080.77
2019-03-29T08:01:40.309Z,74066.86
2019-03-29T08:04:21.741Z,74040.05
2019-03-29T08:07:03.239Z,74047.00
2019-03-29T08:09:44.844Z,74020.19
2019-03-29T08:12:25.985Z,74044.02
2019-03-29T08:15:09.236Z,74039.05
2019-03-29T08:17:49.081Z,74068.85
2019-03-29T08:20:41.673Z,74032.11
2019-03-29T08:23:11.873Z,74061.90
2019-03-29T08:25:52.845Z,74047.00
2019-03-29T08:28:34.304Z,74056.94
2019-03-29T08:31:15.724Z,74058.92
2019-03-29T08:33:57.067Z,74021.18
2019-03-29T08:36:37.964Z,74040.05
2019-03-29T08:39:27.969Z,74021.18
2019-03-29T08:42:00.828Z,74019.20
2019-03-29T08:44:42.199Z,74000.33
2019-03-29T08:47:23.732Z,73983.44
2019-03-29T08:50:04.083Z,73984.44
2019-03-29T08:52:44.778Z,73982.45
2019-03-29T08:55:25.838Z,73981.45
2019-03-29T08:58:06.949Z,73996.35
2019-03-29T09:00:48.216Z,73962.59
2019-03-29T09:03:29.821Z,73961.59
2019-03-29T09:06:11.445Z,73916.91
2019-03-29T09:08:52.377Z,73933.78
2019-03-29T09:11:33.326Z,73943.72
2019-03-29T09:14:14.921Z,73966.56
2019-03-29T09:16:55.955Z,73968.55
2019-03-29T09:19:37.500Z,73975.50
2019-03-29T09:22:17.881Z,73999.33
2019-03-29T09:24:59.089Z,73995.36
2019-03-29T09:27:39.694Z,74016.22
2019-03-29T09:30:20.282Z,74015.22
2019-03-29T09:33:01.339Z,74018.20
2019-03-29T09:35:42.954Z,74021.18
2019-03-29T09:38:23.624Z,74049.98
2019-03-29T09:41:04.547Z,74077.79
2019-03-29T09:43:45.805Z,74077.79
2019-03-29T09:46:27.083Z,74064.88
2019-03-29T09:49:08.481Z,74065.88
2019-03-29T09:51:49.664Z,74076.80
2019-03-29T09:54:31.253Z,74071.83
2019-03-29T09:57:15.502Z,74076.80
2019-03-29T09:59:54.788Z,74049.98
2019-03-29T10:02:35.720Z,74056.94
2019-03-29T10:05:19.653Z,74048.00
2019-03-29T10:07:58.289Z,74056.94
2019-03-29T10:10:39.239Z,74053.95
2019-03-29T10:13:20.215Z,74057.93
2019-03-29T10:16:01.358Z,74054.95
2019-03-29T10:18:42.442Z,74064.88
2019-03-29T10:21:23.092Z,74072.83
2019-03-29T10:24:03.752Z,74069.84
2019-03-29T10:26:44.434Z,74061.90
2019-03-29T10:29:25.716Z,74045.02
2019-03-29T10:32:09.390Z,74045.02
2019-03-29T10:34:48.461Z,74030.13
2019-03-29T10:37:29.496Z,74060.91
2019-03-29T10:40:10.393Z,74071.83
2019-03-29T10:42:57.485Z,74087.72
2019-03-29T10:45:39.495Z,74095.67
2019-03-29T10:48:15.564Z,74100.63
2019-03-29T10:50:56.584Z,74105.59
2019-03-29T10:53:37.226Z,74109.57
2019-03-29T10:56:18.032Z,74115.53
2019-03-29T10:58:59.481Z,74114.53
2019-03-29T11:01:41.007Z,74119.50
2019-03-29T11:04:21.721Z,74115.53
2019-03-29T11:07:02.090Z,74119.50
2019-03-29T11:09:43.574Z,74123.47
2019-03-29T11:12:24.702Z,74131.42
2019-03-29T11:15:06.778Z,74145.33
2019-03-29T11:17:47.732Z,74146.31
2019-03-29T11:20:29.332Z,74155.26
2019-03-29T11:23:10.617Z,74164.20
2019-03-29T11:25:51.096Z,74168.17
2019-03-29T11:28:31.890Z,74168.17
2019-03-29T11:31:13.137Z,74186.05
2019-03-29T11:33:54.182Z,74184.06
2019-03-29T11:36:36.057Z,74189.02
2019-03-29T11:39:17.011Z,74194.98
2019-03-29T11:41:57.960Z,74206.91
2019-03-29T11:44:38.922Z,74215.84
2019-03-29T11:47:20.531Z,74230.73
2019-03-29T11:50:01.240Z,74231.73
2019-03-29T11:52:42.121Z,74251.59
2019-03-29T11:55:23.100Z,74269.47
2019-03-29T11:58:04.363Z,74268.48
2019-03-29T12:00:45.324Z,74275.43
2019-03-29T12:03:26.083Z,74289.34
2019-03-29T12:06:07.016Z,74297.28
2019-03-29T12:08:47.897Z,74307.22
2019-03-29T12:11:29.495Z,74320.13
2019-03-29T12:14:10.457Z,74328.08
2019-03-29T12:16:51.727Z,74339.00
2019-03-29T12:19:32.711Z,74357.87
2019-03-29T12:22:13.981Z,74370.78
2019-03-29T12:24:55.571Z,74389.66
2019-03-29T12:27:36.853Z,74397.59
2019-03-29T12:30:30.677Z,74403.56
2019-03-29T12:32:59.214Z,74417.47
2019-03-29T12:35:40.117Z,74433.36
2019-03-29T12:38:21.001Z,74440.30
2019-03-29T12:41:01.323Z,74444.28
2019-03-29T12:43:54.858Z,74449.25
2019-03-29T12:46:23.574Z,74451.23
2019-03-29T12:49:04.338Z,74470.11
2019-03-29T12:51:46.666Z,74470.11
2019-03-29T12:54:26.360Z,74478.05
2019-03-29T12:57:07.402Z,74482.02
2019-03-29T12:59:48.138Z,74482.02
2019-03-29T13:02:28.694Z,74490.96
2019-03-29T13:05:09.336Z,74494.94
2019-03-29T13:07:52.966Z,74502.88
2019-03-29T13:10:31.982Z,74513.81
2019-03-29T13:13:13.358Z,74523.74
2019-03-29T13:15:55.091Z,74526.72
2019-03-29T13:18:35.750Z,74537.64
2019-03-29T13:21:16.300Z,74539.63
2019-03-29T13:23:57.339Z,74549.56
2019-03-29T13:26:38.056Z,74554.53
2019-03-29T13:29:19.570Z,74568.44
2019-03-29T13:31:59.814Z,74562.48
2019-03-29T13:34:41.495Z,74565.45
2019-03-29T13:37:24.782Z,74562.48
2019-03-29T13:40:05.421Z,74569.43
2019-03-29T13:42:46.285Z,74585.33
2019-03-29T13:45:28.201Z,74605.19
2019-03-29T13:48:09.471Z,74617.11
2019-03-29T13:50:50.342Z,74627.05
2019-03-29T13:53:36.659Z,74631.02
2019-03-29T13:56:18.072Z,74638.96
2019-03-29T13:58:58.565Z,74652.87
2019-03-29T14:01:39.081Z,74662.80
2019-03-29T14:04:19.684Z,74671.73
2019-03-29T14:07:00.622Z,74671.73
2019-03-29T14:09:44.323Z,74680.68
2019-03-29T14:12:24.970Z,74687.63
2019-03-29T14:15:05.971Z,74694.58
2019-03-29T14:17:46.592Z,74697.56
2019-03-29T14:20:27.409Z,74704.52
2019-03-29T14:23:08.712Z,74703.52
2019-03-29T14:25:49.143Z,74702.53
2019-03-29T14:28:30.297Z,74711.47
2019-03-29T14:31:10.793Z,74712.47
2019-03-29T14:33:51.953Z,74704.52
2019-03-29T14:36:32.387Z,74714.45
2019-03-29T14:39:13.493Z,74717.43
2019-03-29T14:41:54.512Z,74714.45
2019-03-29T14:44:35.589Z,74713.45
2019-03-29T14:47:16.898Z,74715.45
2019-03-29T14:49:57.273Z,74714.45
2019-03-29T14:52:37.825Z,74715.45
2019-03-29T14:55:18.306Z,74717.43
2019-03-29T14:57:58.778Z,74734.32
2019-03-29T15:00:39.363Z,74731.34
2019-03-29T15:03:20.527Z,74738.29
2019-03-29T15:06:01.851Z,74745.24
2019-03-29T15:08:41.822Z,74752.20
2019-03-29T15:11:23.101Z,74763.13
2019-03-29T15:14:03.924Z,74768.09
2019-03-29T15:16:44.364Z,74771.07
2019-03-29T15:19:24.903Z,74780.01
2019-03-29T15:22:05.733Z,74782.98
2019-03-29T15:24:46.839Z,74788.95
2019-03-29T15:27:28.202Z,74791.93
2019-03-29T15:30:08.863Z,74788.95
2019-03-29T15:32:50.765Z,74791.93
2019-03-29T15:35:31.839Z,74793.92
2019-03-29T15:38:15.406Z,74789.95
2019-03-29T15:40:58.448Z,74789.95
2019-03-29T15:43:39.464Z,74782.98
2019-03-29T15:46:21.130Z,74780.01
2019-03-29T15:49:05.064Z,74771.07
2019-03-29T15:51:45.702Z,74775.05
2019-03-29T15:54:30.898Z,74784.98
2019-03-29T15:57:11.851Z,74782.00
2019-03-29T15:59:52.529Z,74785.97
2019-03-29T16:02:38.098Z,74793.92
2019-03-29T16:05:25.383Z,74795.91
2019-03-29T16:08:08.551Z,74793.92
2019-03-29T16:10:51.082Z,74801.86
2019-03-29T16:13:33.801Z,74811.80
2019-03-29T16:16:19.686Z,74806.83
2019-03-29T16:19:01.504Z,74800.87
2019-03-29T16:21:45.355Z,74799.88
2019-03-29T16:24:29.693Z,74797.89
2019-03-29T16:27:15.340Z,74786.97
2019-03-29T16:29:58.716Z,74782.00
2019-03-29T16:32:43.566Z,74779.02
2019-03-29T16:35:25.244Z,74779.02
2019-03-29T16:38:06.056Z,74780.01
2019-03-29T16:40:46.565Z,74781.00
2019-03-29T16:43:27.501Z,74777.03
2019-03-29T16:46:15.851Z,74770.08
2019-03-29T16:48:59.106Z,74769.08
2019-03-29T16:51:42.839Z,74769.08
2019-03-29T16:54:30.794Z,74765.11
2019-03-29T16:59:59.858Z,74767.09
2019-03-29T17:02:41.175Z,74767.09
2019-03-29T17:05:22.670Z,74777.03
2019-03-29T17:08:05.265Z,74774.05
2019-03-29T17:13:33.160Z,74773.06
2019-03-29T17:16:14.440Z,74777.03
2019-03-29T17:18:54.960Z,74774.05
2019-03-29T17:21:35.439Z,74779.02
2019-03-29T17:26:35.444Z,74793.92
2019-03-29T17:29:16.046Z,74795.91
2019-03-29T17:31:56.972Z,74795.91
2019-03-29T17:34:37.534Z,74793.92
2019-03-29T17:37:17.937Z,74801.86
2019-03-29T17:39:58.442Z,74808.81
2019-03-29T17:42:39.413Z,74808.81
2019-03-29T17:45:20.270Z,74800.87
2019-03-29T17:48:01.489Z,74793.92
2019-03-29T17:50:42.226Z,74793.92
2019-03-29T17:53:22.542Z,74795.91
2019-03-29T17:56:03.272Z,74796.90
2019-03-29T17:58:43.613Z,74794.91
2019-03-29T18:01:24.697Z,74797.89
2019-03-29T18:04:05.644Z,74796.90
2019-03-29T18:06:47.033Z,74796.90
2019-03-29T18:09:26.900Z,74795.91
2019-03-29T18:12:11.048Z,74797.89
2019-03-29T18:14:48.432Z,74794.91
2019-03-29T18:17:29.066Z,74792.92
2019-03-29T18:20:09.773Z,74785.97
2019-03-29T18:22:50.538Z,74791.93
2019-03-29T18:25:31.471Z,74794.91
2019-03-29T18:28:12.056Z,74801.86
2019-03-29T18:30:53.058Z,74807.83
2019-03-29T18:33:33.241Z,74807.83
2019-03-29T18:36:14.281Z,74808.81
2019-03-29T18:38:55.253Z,74809.81
2019-03-29T18:41:35.529Z,74814.78
2019-03-29T18:44:16.521Z,74805.84
2019-03-29T18:46:56.872Z,74810.80
2019-03-29T18:49:37.630Z,74800.87
2019-03-29T18:52:17.982Z,74798.88
2019-03-29T18:54:58.545Z,74793.92
2019-03-29T18:57:39.735Z,74791.93
2019-03-29T19:00:20.221Z,74784.98
2019-03-29T19:03:01.189Z,74782.98
2019-03-29T19:05:41.962Z,74778.02
2019-03-29T19:08:22.185Z,74773.06
2019-03-29T19:11:03.248Z,74773.06
2019-03-29T19:13:43.887Z,74776.04
2019-03-29T19:16:25.495Z,74788.95
2019-03-29T19:19:10.174Z,74795.91
2019-03-29T19:21:48.700Z,74805.84
2019-03-29T19:24:29.734Z,74810.80
2019-03-29T19:27:10.919Z,74817.76
2019-03-29T19:29:52.065Z,74819.75
2019-03-29T19:32:32.862Z,74818.75
2019-03-29T19:35:14.790Z,74822.72
2019-03-29T19:37:56.166Z,74819.75
2019-03-29T19:40:37.054Z,74821.73
2019-03-29T19:43:18.285Z,74821.73
2019-03-29T19:45:59.669Z,74816.77
2019-03-29T19:48:41.201Z,74815.77
2019-03-29T19:51:22.127Z,74815.77
2019-03-29T19:54:07.491Z,74821.73
2019-03-29T19:56:45.736Z,74811.80
2019-03-29T19:59:27.275Z,74814.78
2019-03-29T20:02:07.975Z,74813.78
2019-03-29T20:04:48.593Z,74813.78
2019-03-29T20:07:29.800Z,74813.78
2019-03-29T20:10:11.084Z,74813.78
2019-03-29T20:12:52.684Z,74817.76
2019-03-29T20:15:33.334Z,74812.79
2019-03-29T20:18:14.359Z,74810.80
2019-03-29T20:20:55.576Z,74808.81
2019-03-29T20:23:36.841Z,74812.79
2019-03-29T20:26:18.832Z,74812.79
2019-03-29T20:29:00.045Z,74809.81
2019-03-29T20:31:41.083Z,74812.79
2019-03-29T20:34:21.963Z,74812.79
2019-03-29T20:37:03.264Z,74812.79
2019-03-29T20:39:44.540Z,74810.80
2019-03-29T20:42:25.804Z,74811.80
2019-03-29T20:45:06.230Z,74808.81
2019-03-29T20:47:46.839Z,74805.84
2019-03-29T20:50:27.778Z,74801.86
2019-03-29T20:53:07.773Z,74800.87
2019-03-29T20:55:48.414Z,74793.92
2019-03-29T20:58:28.936Z,74798.88
2019-03-29T21:01:09.271Z,74799.88
2019-03-29T21:03:49.850Z,74797.89
2019-03-29T21:06:30.591Z,74805.84
2019-03-29T21:09:10.609Z,74793.92
2019-03-29T21:11:50.904Z,74798.88
2019-03-29T21:14:31.273Z,74791.93
2019-03-29T21:17:11.398Z,74785.97
2019-03-29T21:19:52.228Z,74792.92
2019-03-29T21:22:32.551Z,74786.97
2019-03-29T21:25:12.584Z,74794.91
2019-03-29T21:27:53.382Z,74793.92
2019-03-29T21:30:34.213Z,74794.91
2019-03-29T21:33:14.814Z,74789.95
2019-03-29T21:35:55.587Z,74785.97
2019-03-29T21:38:36.192Z,74781.00
2019-03-29T21:41:16.758Z,74776.04
2019-03-29T21:43:57.380Z,74782.98
2019-03-29T21:46:38.294Z,74791.93
2019-03-29T21:49:18.930Z,74802.86
2019-03-29T21:51:59.610Z,74809.81
2019-03-29T21:54:40.217Z,74797.89
2019-03-29T21:57:20.947Z,74782.98
2019-03-29T22:00:01.809Z,74779.02
2019-03-29T22:02:42.863Z,74778.02
2019-03-29T22:05:23.743Z,74793.92
2019-03-29T22:08:04.422Z,74804.84
2019-03-29T22:10:45.025Z,74805.84
2019-03-29T22:13:25.670Z,74807.83
2019-03-29T22:16:06.934Z,74806.83
2019-03-29T22:18:47.901Z,74802.86
2019-03-29T22:21:28.857Z,74799.88
2019-03-29T22:24:09.812Z,74807.83
2019-03-29T22:26:50.454Z,74810.80
2019-03-29T22:29:31.123Z,74814.78
2019-03-29T22:32:12.363Z,74817.76
2019-03-29T22:34:53.411Z,74818.75
2019-03-29T22:37:34.290Z,74824.71
2019-03-29T22:40:15.259Z,74828.69
2019-03-29T22:42:55.885Z,74828.69
2019-03-29T22:45:36.537Z,74828.69
2019-03-29T22:48:17.801Z,74827.69
2019-03-29T22:50:58.180Z,74832.66
2019-03-29T22:53:38.901Z,74832.66
2019-03-29T22:56:19.814Z,74838.62
2019-03-29T22:59:00.695Z,74835.64
2019-03-29T23:01:41.962Z,74834.64
2019-03-29T23:04:23.018Z,74836.63
2019-03-29T23:07:04.671Z,74839.61
2019-03-29T23:09:45.812Z,74842.59
2019-03-29T23:12:27.094Z,74849.55
2019-03-29T23:15:08.069Z,74858.48
2019-03-29T23:17:49.011Z,74841.59
2019-03-29T23:20:30.296Z,74846.56
2019-03-29T23:23:11.575Z,74851.53
2019-03-29T23:25:52.930Z,74848.55
2019-03-29T23:28:33.832Z,74847.55
2019-03-29T23:31:14.610Z,74856.50
2019-03-29T23:33:55.582Z,74853.52
2019-03-29T23:36:36.693Z,74853.52
2019-03-29T23:39:18.302Z,74859.48
2019-03-29T23:41:59.373Z,74858.48
2019-03-29T23:44:40.537Z,74856.50
2019-03-29T23:47:21.193Z,74860.47
2019-03-29T23:50:02.383Z,74861.47
2019-03-29T23:52:43.752Z,74858.48
2019-03-29T23:55:25.035Z,74858.48
2019-03-29T23:58:05.976Z,74862.45
